CheckWX is a tool to help pilots better visualize weather data.  It is not intended as a substitute for an official pre-flight weather briefing.

21:26:32 UTC

LYUZ TAF
Uzice-ponikve
Uzice-ponikve
TAF LYUZ 291700Z 2918/3018 29008KT 3000 BR BKN010 TX03/3013Z TNM03/3006Z TEMPO 2918/2922 0600 SN FZFG VV003 TEMPO 3004/3008 0300 -SN FZFG VV002 BECMG 3008/3010 6000 NSW SCT015

Jan-29@
18:00 UTC

Jan-29 @ 18:00 UTC

Jan-30@
08:00 UTC

Jan-30 @ 08:00 UTC

TAF LYUZ 291700Z 2918/3018 29008KT 3000 BR BKN010 TX03/3013Z TNM03/3006Z
Wind
  • 290° at 8 KTS
Conditions
Mist
Cloud Levels
  • Broken at 1,000' AGL

Jan-29@
18:00 UTC

Jan-29 @ 18:00 UTC

Jan-29@
22:00 UTC

Jan-29 @ 22:00 UTC

TEMPO 2918/2922 0600 SN FZFG VV003

Temporary

Temporary Changes expected for less than half the time period

Conditions
Snow, Freezing Fog
Cloud Levels
  • Vertical visibility at 300' AGL

Jan-30@
04:00 UTC

Jan-30 @ 04:00 UTC

Jan-30@
08:00 UTC

Jan-30 @ 08:00 UTC

TEMPO 3004/3008 0300 -SN FZFG VV002

Temporary

Temporary Changes expected for less than half the time period

Conditions
Light Snow, Freezing Fog
Cloud Levels
  • Vertical visibility at 200' AGL

Jan-30@
08:00 UTC

Jan-30 @ 08:00 UTC

Jan-30@
18:00 UTC

Jan-30 @ 18:00 UTC

BECMG 3008/3010 6000 NSW SCT015

Becoming

Becoming Conditions expected by Thu, Jan 30, 2020 @ 10:00 UTC

Wind
  • 290° at 8 KTS
Conditions
No significant weather
Cloud Levels
  • Scattered at 1,500' AGL